sensor_id;sensor_type;location;lat;lon;timestamp;P1;durP1;ratioP1;P2;durP2;ratioP2
25990;SDS011;13779;-33.886;151.198;2024-01-25T00:00:06;7.65;;;2.67;;
25990;SDS011;13779;-33.886;151.198;2024-01-25T00:02:36;8.35;;;3.05;;
25990;SDS011;13779;-33.886;151.198;2024-01-25T00:05:07;11.38;;;2.72;;
25990;SDS011;13779;-33.886;151.198;2024-01-25T00:07:50;14.35;;;3.40;;
25990;SDS011;13779;-33.886;151.198;2024-01-25T00:10:21;10.05;;;3.20;;
25990;SDS011;13779;-33.886;151.198;2024-01-25T00:12:51;10.27;;;3.78;;
25990;SDS011;13779;-33.886;151.198;2024-01-25T00:15:22;9.73;;;3.63;;
25990;SDS011;13779;-33.886;151.198;2024-01-25T00:17:52;13.15;;;4.10;;
25990;SDS011;13779;-33.886;151.198;2024-01-25T00:20:23;13.73;;;4.15;;
25990;SDS011;13779;-33.886;151.198;2024-01-25T00:22:54;11.50;;;3.30;;
25990;SDS011;13779;-33.886;151.198;2024-01-25T00:25:25;11.50;;;4.07;;
25990;SDS011;13779;-33.886;151.198;2024-01-25T00:27:55;8.50;;;3.70;;
25990;SDS011;13779;-33.886;151.198;2024-01-25T00:30:26;13.40;;;3.90;;
25990;SDS011;13779;-33.886;151.198;2024-01-25T00:32:56;14.48;;;4.38;;
25990;SDS011;13779;-33.886;151.198;2024-01-25T00:37:57;13.88;;;3.75;;
25990;SDS011;13779;-33.886;151.198;2024-01-25T00:40:28;14.45;;;4.40;;
25990;SDS011;13779;-33.886;151.198;2024-01-25T00:42:59;13.98;;;3.95;;
25990;SDS011;13779;-33.886;151.198;2024-01-25T00:45:29;15.63;;;4.45;;
25990;SDS011;13779;-33.886;151.198;2024-01-25T00:48:00;20.45;;;4.93;;
25990;SDS011;13779;-33.886;151.198;2024-01-25T00:50:31;16.35;;;4.38;;
25990;SDS011;13779;-33.886;151.198;2024-01-25T00:53:01;20.33;;;4.82;;
25990;SDS011;13779;-33.886;151.198;2024-01-25T00:55:32;17.40;;;5.18;;
25990;SDS011;13779;-33.886;151.198;2024-01-25T00:58:02;20.33;;;5.05;;
25990;SDS011;13779;-33.886;151.198;2024-01-25T01:00:32;21.83;;;4.90;;
25990;SDS011;13779;-33.886;151.198;2024-01-25T01:03:03;21.10;;;5.90;;
25990;SDS011;13779;-33.886;151.198;2024-01-25T01:08:04;19.35;;;5.80;;
25990;SDS011;13779;-33.886;151.198;2024-01-25T01:13:04;21.80;;;5.43;;
25990;SDS011;13779;-33.886;151.198;2024-01-25T01:15:34;28.42;;;6.55;;
25990;SDS011;13779;-33.886;151.198;2024-01-25T01:18:05;18.77;;;5.28;;
25990;SDS011;13779;-33.886;151.198;2024-01-25T01:20:35;19.05;;;5.03;;
25990;SDS011;13779;-33.886;151.198;2024-01-25T01:23:07;27.83;;;5.65;;
25990;SDS011;13779;-33.886;151.198;2024-01-25T01:25:38;21.08;;;5.63;;
25990;SDS011;13779;-33.886;151.198;2024-01-25T01:28:08;22.40;;;5.97;;
25990;SDS011;13779;-33.886;151.198;2024-01-25T01:30:39;23.23;;;5.70;;
25990;SDS011;13779;-33.886;151.198;2024-01-25T01:33:10;22.10;;;5.38;;
25990;SDS011;13779;-33.886;151.198;2024-01-25T01:35:41;20.67;;;5.30;;
25990;SDS011;13779;-33.886;151.198;2024-01-25T01:38:12;16.90;;;5.22;;
25990;SDS011;13779;-33.886;151.198;2024-01-25T01:40:44;16.65;;;5.00;;
25990;SDS011;13779;-33.886;151.198;2024-01-25T01:43:18;22.75;;;6.10;;
25990;SDS011;13779;-33.886;151.198;2024-01-25T01:45:49;20.15;;;5.70;;
25990;SDS011;13779;-33.886;151.198;2024-01-25T01:48:20;17.08;;;5.43;;
25990;SDS011;13779;-33.886;151.198;2024-01-25T01:53:21;18.80;;;4.97;;
25990;SDS011;13779;-33.886;151.198;2024-01-25T01:55:51;25.13;;;6.60;;
25990;SDS011;13779;-33.886;151.198;2024-01-25T01:58:23;21.50;;;5.18;;
25990;SDS011;13779;-33.886;151.198;2024-01-25T02:00:55;21.60;;;5.30;;
25990;SDS011;13779;-33.886;151.198;2024-01-25T02:03:28;18.92;;;4.50;;
25990;SDS011;13779;-33.886;151.198;2024-01-25T02:08:31;27.98;;;5.85;;
25990;SDS011;13779;-33.886;151.198;2024-01-25T02:11:02;24.88;;;5.55;;
25990;SDS011;13779;-33.886;151.198;2024-01-25T02:13:33;30.88;;;5.70;;
25990;SDS011;13779;-33.886;151.198;2024-01-25T02:16:04;20.55;;;4.43;;
25990;SDS011;13779;-33.886;151.198;2024-01-25T02:18:41;26.45;;;4.60;;
25990;SDS011;13779;-33.886;151.198;2024-01-25T02:21:12;23.50;;;6.07;;
25990;SDS011;13779;-33.886;151.198;2024-01-25T02:26:13;25.95;;;4.75;;
25990;SDS011;13779;-33.886;151.198;2024-01-25T02:28:44;24.85;;;5.82;;
25990;SDS011;13779;-33.886;151.198;2024-01-25T02:31:14;23.35;;;6.20;;
25990;SDS011;13779;-33.886;151.198;2024-01-25T02:33:45;23.42;;;5.35;;
25990;SDS011;13779;-33.886;151.198;2024-01-25T02:38:46;20.00;;;4.35;;
25990;SDS011;13779;-33.886;151.198;2024-01-25T02:41:16;22.27;;;6.68;;
25990;SDS011;13779;-33.886;151.198;2024-01-25T02:43:47;27.85;;;5.57;;
25990;SDS011;13779;-33.886;151.198;2024-01-25T02:46:18;23.30;;;5.38;;
25990;SDS011;13779;-33.886;151.198;2024-01-25T02:48:48;24.55;;;5.90;;
25990;SDS011;13779;-33.886;151.198;2024-01-25T02:51:19;27.70;;;5.25;;
25990;SDS011;13779;-33.886;151.198;2024-01-25T02:56:20;25.23;;;6.00;;
25990;SDS011;13779;-33.886;151.198;2024-01-25T02:58:50;28.77;;;5.30;;
25990;SDS011;13779;-33.886;151.198;2024-01-25T03:01:21;24.67;;;5.57;;
25990;SDS011;13779;-33.886;151.198;2024-01-25T03:03:52;23.17;;;5.07;;
25990;SDS011;13779;-33.886;151.198;2024-01-25T03:06:23;27.95;;;5.10;;
25990;SDS011;13779;-33.886;151.198;2024-01-25T03:08:53;23.33;;;5.63;;
25990;SDS011;13779;-33.886;151.198;2024-01-25T03:11:24;19.38;;;4.55;;
25990;SDS011;13779;-33.886;151.198;2024-01-25T03:13:54;23.55;;;4.82;;
25990;SDS011;13779;-33.886;151.198;2024-01-25T03:16:25;29.20;;;5.80;;
25990;SDS011;13779;-33.886;151.198;2024-01-25T03:18:56;20.17;;;3.80;;
25990;SDS011;13779;-33.886;151.198;2024-01-25T03:23:57;21.05;;;4.40;;
25990;SDS011;13779;-33.886;151.198;2024-01-25T03:28:58;25.88;;;5.50;;
25990;SDS011;13779;-33.886;151.198;2024-01-25T03:31:31;29.45;;;5.97;;
25990;SDS011;13779;-33.886;151.198;2024-01-25T03:34:04;21.58;;;5.13;;
25990;SDS011;13779;-33.886;151.198;2024-01-25T03:36:35;21.75;;;4.68;;
25990;SDS011;13779;-33.886;151.198;2024-01-25T03:39:08;21.75;;;4.55;;
25990;SDS011;13779;-33.886;151.198;2024-01-25T03:41:38;21.55;;;4.47;;
25990;SDS011;13779;-33.886;151.198;2024-01-25T03:44:09;32.65;;;6.07;;
25990;SDS011;13779;-33.886;151.198;2024-01-25T03:46:40;25.15;;;4.45;;
25990;SDS011;13779;-33.886;151.198;2024-01-25T03:49:10;25.98;;;5.30;;
25990;SDS011;13779;-33.886;151.198;2024-01-25T03:51:41;27.15;;;5.40;;
25990;SDS011;13779;-33.886;151.198;2024-01-25T03:56:42;20.95;;;4.65;;
25990;SDS011;13779;-33.886;151.198;2024-01-25T03:59:13;20.63;;;4.75;;
25990;SDS011;13779;-33.886;151.198;2024-01-25T04:01:44;17.85;;;4.78;;
25990;SDS011;13779;-33.886;151.198;2024-01-25T04:04:16;20.40;;;4.78;;
25990;SDS011;13779;-33.886;151.198;2024-01-25T04:06:46;19.25;;;4.28;;
25990;SDS011;13779;-33.886;151.198;2024-01-25T04:09:17;27.52;;;5.72;;
25990;SDS011;13779;-33.886;151.198;2024-01-25T04:11:48;25.05;;;4.50;;
25990;SDS011;13779;-33.886;151.198;2024-01-25T04:14:18;28.55;;;6.75;;
25990;SDS011;13779;-33.886;151.198;2024-01-25T04:16:49;16.85;;;4.60;;
25990;SDS011;13779;-33.886;151.198;2024-01-25T04:19:19;21.95;;;5.10;;
25990;SDS011;13779;-33.886;151.198;2024-01-25T04:21:50;20.10;;;4.72;;
25990;SDS011;13779;-33.886;151.198;2024-01-25T04:24:22;15.90;;;4.60;;
25990;SDS011;13779;-33.886;151.198;2024-01-25T04:26:52;22.15;;;5.57;;
25990;SDS011;13779;-33.886;151.198;2024-01-25T04:29:23;25.05;;;6.85;;
25990;SDS011;13779;-33.886;151.198;2024-01-25T04:31:54;26.17;;;5.75;;
25990;SDS011;13779;-33.886;151.198;2024-01-25T04:34:24;46.28;;;28.63;;
25990;SDS011;13779;-33.886;151.198;2024-01-25T04:36:55;28.42;;;10.23;;
25990;SDS011;13779;-33.886;151.198;2024-01-25T04:41:56;20.00;;;5.15;;
25990;SDS011;13779;-33.886;151.198;2024-01-25T04:44:27;19.58;;;4.30;;
25990;SDS011;13779;-33.886;151.198;2024-01-25T04:46:57;19.92;;;4.65;;
25990;SDS011;13779;-33.886;151.198;2024-01-25T04:49:29;19.73;;;4.45;;
25990;SDS011;13779;-33.886;151.198;2024-01-25T04:51:59;19.35;;;4.50;;
25990;SDS011;13779;-33.886;151.198;2024-01-25T04:54:30;18.35;;;4.65;;
25990;SDS011;13779;-33.886;151.198;2024-01-25T04:57:01;19.90;;;5.18;;
25990;SDS011;13779;-33.886;151.198;2024-01-25T04:59:35;22.08;;;4.85;;
25990;SDS011;13779;-33.886;151.198;2024-01-25T05:02:06;20.75;;;4.53;;
25990;SDS011;13779;-33.886;151.198;2024-01-25T05:04:37;22.23;;;4.40;;
25990;SDS011;13779;-33.886;151.198;2024-01-25T05:07:10;21.00;;;4.78;;
25990;SDS011;13779;-33.886;151.198;2024-01-25T05:09:41;22.63;;;4.68;;
25990;SDS011;13779;-33.886;151.198;2024-01-25T05:12:11;16.88;;;4.43;;
25990;SDS011;13779;-33.886;151.198;2024-01-25T05:14:42;20.52;;;4.30;;
25990;SDS011;13779;-33.886;151.198;2024-01-25T05:17:13;24.33;;;5.55;;
25990;SDS011;13779;-33.886;151.198;2024-01-25T05:19:44;15.90;;;4.00;;
25990;SDS011;13779;-33.886;151.198;2024-01-25T05:22:15;23.88;;;4.35;;
25990;SDS011;13779;-33.886;151.198;2024-01-25T05:27:16;20.70;;;4.88;;
25990;SDS011;13779;-33.886;151.198;2024-01-25T05:29:47;24.70;;;4.35;;
25990;SDS011;13779;-33.886;151.198;2024-01-25T05:32:18;23.90;;;5.00;;
25990;SDS011;13779;-33.886;151.198;2024-01-25T05:34:49;23.48;;;5.18;;
25990;SDS011;13779;-33.886;151.198;2024-01-25T05:37:20;25.63;;;5.00;;
25990;SDS011;13779;-33.886;151.198;2024-01-25T05:39:51;26.63;;;5.85;;
25990;SDS011;13779;-33.886;151.198;2024-01-25T05:42:22;19.73;;;4.15;;
25990;SDS011;13779;-33.886;151.198;2024-01-25T05:44:53;23.33;;;4.72;;
25990;SDS011;13779;-33.886;151.198;2024-01-25T05:47:25;22.15;;;5.03;;
25990;SDS011;13779;-33.886;151.198;2024-01-25T05:49:56;25.58;;;3.90;;
25990;SDS011;13779;-33.886;151.198;2024-01-25T05:52:27;18.48;;;5.18;;
25990;SDS011;13779;-33.886;151.198;2024-01-25T05:54:57;22.45;;;5.55;;
25990;SDS011;13779;-33.886;151.198;2024-01-25T05:57:30;25.80;;;6.07;;
25990;SDS011;13779;-33.886;151.198;2024-01-25T06:00:01;21.48;;;5.82;;
25990;SDS011;13779;-33.886;151.198;2024-01-25T06:02:34;23.65;;;4.45;;
25990;SDS011;13779;-33.886;151.198;2024-01-25T06:05:04;24.45;;;4.97;;
25990;SDS011;13779;-33.886;151.198;2024-01-25T06:07:36;24.67;;;5.75;;
25990;SDS011;13779;-33.886;151.198;2024-01-25T06:10:07;27.95;;;5.78;;
25990;SDS011;13779;-33.886;151.198;2024-01-25T06:12:38;28.13;;;6.18;;
25990;SDS011;13779;-33.886;151.198;2024-01-25T06:15:09;23.45;;;5.53;;
25990;SDS011;13779;-33.886;151.198;2024-01-25T06:17:40;20.63;;;5.40;;
25990;SDS011;13779;-33.886;151.198;2024-01-25T06:20:10;29.80;;;5.60;;
25990;SDS011;13779;-33.886;151.198;2024-01-25T06:22:42;19.27;;;4.55;;
25990;SDS011;13779;-33.886;151.198;2024-01-25T06:25:13;23.17;;;5.40;;
25990;SDS011;13779;-33.886;151.198;2024-01-25T06:27:44;20.23;;;5.05;;
25990;SDS011;13779;-33.886;151.198;2024-01-25T06:30:15;23.00;;;5.78;;
25990;SDS011;13779;-33.886;151.198;2024-01-25T06:32:45;23.13;;;6.15;;
25990;SDS011;13779;-33.886;151.198;2024-01-25T06:35:16;24.38;;;6.35;;
25990;SDS011;13779;-33.886;151.198;2024-01-25T06:37:46;23.65;;;5.80;;
25990;SDS011;13779;-33.886;151.198;2024-01-25T06:40:17;24.27;;;5.45;;
25990;SDS011;13779;-33.886;151.198;2024-01-25T06:42:47;23.40;;;5.60;;
25990;SDS011;13779;-33.886;151.198;2024-01-25T06:45:18;20.00;;;5.10;;
25990;SDS011;13779;-33.886;151.198;2024-01-25T06:47:48;26.25;;;5.88;;
25990;SDS011;13779;-33.886;151.198;2024-01-25T06:50:21;27.17;;;5.70;;
25990;SDS011;13779;-33.886;151.198;2024-01-25T06:52:52;26.15;;;5.63;;
25990;SDS011;13779;-33.886;151.198;2024-01-25T06:55:23;26.77;;;6.00;;
25990;SDS011;13779;-33.886;151.198;2024-01-25T06:57:54;18.75;;;5.65;;
25990;SDS011;13779;-33.886;151.198;2024-01-25T07:00:24;19.65;;;5.90;;
25990;SDS011;13779;-33.886;151.198;2024-01-25T07:02:54;20.58;;;5.45;;
25990;SDS011;13779;-33.886;151.198;2024-01-25T07:05:24;24.55;;;5.40;;
25990;SDS011;13779;-33.886;151.198;2024-01-25T07:08:02;35.67;;;7.40;;
25990;SDS011;13779;-33.886;151.198;2024-01-25T07:10:33;24.85;;;7.15;;
25990;SDS011;13779;-33.886;151.198;2024-01-25T07:13:04;29.23;;;6.82;;
25990;SDS011;13779;-33.886;151.198;2024-01-25T07:18:04;26.15;;;5.47;;
25990;SDS011;13779;-33.886;151.198;2024-01-25T07:20:35;24.42;;;6.07;;
25990;SDS011;13779;-33.886;151.198;2024-01-25T07:23:06;24.58;;;5.53;;
25990;SDS011;13779;-33.886;151.198;2024-01-25T07:25:37;24.58;;;6.03;;
25990;SDS011;13779;-33.886;151.198;2024-01-25T07:28:07;24.42;;;6.53;;
25990;SDS011;13779;-33.886;151.198;2024-01-25T07:30:38;27.48;;;6.32;;
25990;SDS011;13779;-33.886;151.198;2024-01-25T07:33:08;26.40;;;6.65;;
25990;SDS011;13779;-33.886;151.198;2024-01-25T07:35:39;32.03;;;7.07;;
25990;SDS011;13779;-33.886;151.198;2024-01-25T07:38:17;24.05;;;6.45;;
25990;SDS011;13779;-33.886;151.198;2024-01-25T07:40:47;22.60;;;6.22;;
25990;SDS011;13779;-33.886;151.198;2024-01-25T07:43:18;25.45;;;6.40;;
25990;SDS011;13779;-33.886;151.198;2024-01-25T07:45:48;26.73;;;7.15;;
25990;SDS011;13779;-33.886;151.198;2024-01-25T07:48:20;25.83;;;6.55;;
25990;SDS011;13779;-33.886;151.198;2024-01-25T07:50:50;26.55;;;7.55;;
25990;SDS011;13779;-33.886;151.198;2024-01-25T07:53:21;20.70;;;6.15;;
25990;SDS011;13779;-33.886;151.198;2024-01-25T07:55:51;35.17;;;6.75;;
25990;SDS011;13779;-33.886;151.198;2024-01-25T07:58:22;24.45;;;6.43;;
25990;SDS011;13779;-33.886;151.198;2024-01-25T08:00:52;23.83;;;5.95;;
25990;SDS011;13779;-33.886;151.198;2024-01-25T08:03:22;32.63;;;6.88;;
25990;SDS011;13779;-33.886;151.198;2024-01-25T08:05:52;33.35;;;7.65;;
25990;SDS011;13779;-33.886;151.198;2024-01-25T08:08:23;28.90;;;7.70;;
25990;SDS011;13779;-33.886;151.198;2024-01-25T08:10:53;25.13;;;7.53;;
25990;SDS011;13779;-33.886;151.198;2024-01-25T08:13:25;31.00;;;7.70;;
25990;SDS011;13779;-33.886;151.198;2024-01-25T08:16:01;27.38;;;6.88;;
25990;SDS011;13779;-33.886;151.198;2024-01-25T08:18:31;25.33;;;7.03;;
25990;SDS011;13779;-33.886;151.198;2024-01-25T08:21:02;26.30;;;6.90;;
25990;SDS011;13779;-33.886;151.198;2024-01-25T08:23:33;25.65;;;7.70;;
25990;SDS011;13779;-33.886;151.198;2024-01-25T08:26:03;25.85;;;7.68;;
25990;SDS011;13779;-33.886;151.198;2024-01-25T08:28:40;29.40;;;8.48;;
25990;SDS011;13779;-33.886;151.198;2024-01-25T08:31:14;28.52;;;8.57;;
25990;SDS011;13779;-33.886;151.198;2024-01-25T08:33:45;22.20;;;7.70;;
25990;SDS011;13779;-33.886;151.198;2024-01-25T08:36:19;22.63;;;7.57;;
25990;SDS011;13779;-33.886;151.198;2024-01-25T08:38:49;31.00;;;7.78;;
25990;SDS011;13779;-33.886;151.198;2024-01-25T08:41:20;26.15;;;7.80;;
25990;SDS011;13779;-33.886;151.198;2024-01-25T08:43:50;27.53;;;7.00;;
25990;SDS011;13779;-33.886;151.198;2024-01-25T08:46:20;35.53;;;9.20;;
25990;SDS011;13779;-33.886;151.198;2024-01-25T08:48:51;31.30;;;7.38;;
25990;SDS011;13779;-33.886;151.198;2024-01-25T08:51:21;28.25;;;7.65;;
25990;SDS011;13779;-33.886;151.198;2024-01-25T08:53:52;26.65;;;7.70;;
25990;SDS011;13779;-33.886;151.198;2024-01-25T08:56:22;24.90;;;6.90;;
25990;SDS011;13779;-33.886;151.198;2024-01-25T08:58:52;28.20;;;7.55;;
25990;SDS011;13779;-33.886;151.198;2024-01-25T09:01:23;32.03;;;9.03;;
25990;SDS011;13779;-33.886;151.198;2024-01-25T09:03:53;27.05;;;7.68;;
25990;SDS011;13779;-33.886;151.198;2024-01-25T09:06:26;28.00;;;7.70;;
25990;SDS011;13779;-33.886;151.198;2024-01-25T09:08:56;25.10;;;6.80;;
25990;SDS011;13779;-33.886;151.198;2024-01-25T09:11:29;33.17;;;8.37;;
25990;SDS011;13779;-33.886;151.198;2024-01-25T09:13:59;25.08;;;6.93;;
25990;SDS011;13779;-33.886;151.198;2024-01-25T09:16:29;26.37;;;7.57;;
25990;SDS011;13779;-33.886;151.198;2024-01-25T09:18:59;21.58;;;7.40;;
25990;SDS011;13779;-33.886;151.198;2024-01-25T09:21:30;25.33;;;7.57;;
25990;SDS011;13779;-33.886;151.198;2024-01-25T09:24:00;26.85;;;8.02;;
25990;SDS011;13779;-33.886;151.198;2024-01-25T09:26:31;23.33;;;6.80;;
25990;SDS011;13779;-33.886;151.198;2024-01-25T09:29:01;21.98;;;6.68;;
25990;SDS011;13779;-33.886;151.198;2024-01-25T09:31:33;24.05;;;6.72;;
25990;SDS011;13779;-33.886;151.198;2024-01-25T09:34:03;19.35;;;6.25;;
25990;SDS011;13779;-33.886;151.198;2024-01-25T09:36:35;22.55;;;6.70;;
25990;SDS011;13779;-33.886;151.198;2024-01-25T09:39:05;22.67;;;6.93;;
25990;SDS011;13779;-33.886;151.198;2024-01-25T09:44:09;23.10;;;6.45;;
25990;SDS011;13779;-33.886;151.198;2024-01-25T09:46:40;17.05;;;5.50;;
25990;SDS011;13779;-33.886;151.198;2024-01-25T09:49:12;22.63;;;6.53;;
25990;SDS011;13779;-33.886;151.198;2024-01-25T09:51:43;23.23;;;6.63;;
25990;SDS011;13779;-33.886;151.198;2024-01-25T09:56:45;18.58;;;6.57;;
25990;SDS011;13779;-33.886;151.198;2024-01-25T09:59:19;22.27;;;6.55;;
25990;SDS011;13779;-33.886;151.198;2024-01-25T10:01:50;15.93;;;6.43;;
25990;SDS011;13779;-33.886;151.198;2024-01-25T10:04:20;19.20;;;5.93;;
25990;SDS011;13779;-33.886;151.198;2024-01-25T10:06:56;22.30;;;6.43;;
25990;SDS011;13779;-33.886;151.198;2024-01-25T10:09:27;19.25;;;6.35;;
25990;SDS011;13779;-33.886;151.198;2024-01-25T10:11:57;22.02;;;6.38;;
25990;SDS011;13779;-33.886;151.198;2024-01-25T10:14:35;22.10;;;6.82;;
25990;SDS011;13779;-33.886;151.198;2024-01-25T10:17:06;23.77;;;7.22;;
25990;SDS011;13779;-33.886;151.198;2024-01-25T10:19:36;19.98;;;7.03;;
25990;SDS011;13779;-33.886;151.198;2024-01-25T10:22:07;25.77;;;7.22;;
25990;SDS011;13779;-33.886;151.198;2024-01-25T10:24:42;19.60;;;7.13;;
25990;SDS011;13779;-33.886;151.198;2024-01-25T10:27:13;23.88;;;6.95;;
25990;SDS011;13779;-33.886;151.198;2024-01-25T10:29:44;21.27;;;7.47;;
25990;SDS011;13779;-33.886;151.198;2024-01-25T10:32:16;20.85;;;7.90;;
25990;SDS011;13779;-33.886;151.198;2024-01-25T10:34:47;23.48;;;7.70;;
25990;SDS011;13779;-33.886;151.198;2024-01-25T10:37:18;19.67;;;6.28;;
25990;SDS011;13779;-33.886;151.198;2024-01-25T10:39:49;20.67;;;6.45;;
25990;SDS011;13779;-33.886;151.198;2024-01-25T10:42:20;20.05;;;6.85;;
25990;SDS011;13779;-33.886;151.198;2024-01-25T10:47:21;19.33;;;6.38;;
25990;SDS011;13779;-33.886;151.198;2024-01-25T10:49:52;20.17;;;6.82;;
25990;SDS011;13779;-33.886;151.198;2024-01-25T10:52:24;16.48;;;7.35;;
25990;SDS011;13779;-33.886;151.198;2024-01-25T10:54:56;20.50;;;7.35;;
25990;SDS011;13779;-33.886;151.198;2024-01-25T10:57:33;22.70;;;7.03;;
25990;SDS011;13779;-33.886;151.198;2024-01-25T11:00:06;18.65;;;7.07;;
25990;SDS011;13779;-33.886;151.198;2024-01-25T11:02:44;21.85;;;6.95;;
25990;SDS011;13779;-33.886;151.198;2024-01-25T11:05:16;23.27;;;6.53;;
25990;SDS011;13779;-33.886;151.198;2024-01-25T11:07:50;14.65;;;5.70;;
25990;SDS011;13779;-33.886;151.198;2024-01-25T11:12:58;20.90;;;7.07;;
25990;SDS011;13779;-33.886;151.198;2024-01-25T11:15:31;19.23;;;6.70;;
25990;SDS011;13779;-33.886;151.198;2024-01-25T11:18:03;20.30;;;6.35;;
25990;SDS011;13779;-33.886;151.198;2024-01-25T11:20:37;18.45;;;6.40;;
25990;SDS011;13779;-33.886;151.198;2024-01-25T11:23:09;19.52;;;6.68;;
25990;SDS011;13779;-33.886;151.198;2024-01-25T11:25:45;16.58;;;6.10;;
25990;SDS011;13779;-33.886;151.198;2024-01-25T11:28:18;17.10;;;6.25;;
25990;SDS011;13779;-33.886;151.198;2024-01-25T11:30:48;16.75;;;5.65;;
25990;SDS011;13779;-33.886;151.198;2024-01-25T11:33:20;15.25;;;5.90;;
25990;SDS011;13779;-33.886;151.198;2024-01-25T11:35:55;20.17;;;5.57;;
25990;SDS011;13779;-33.886;151.198;2024-01-25T11:38:26;12.32;;;4.40;;
25990;SDS011;13779;-33.886;151.198;2024-01-25T11:40:58;13.75;;;5.13;;
25990;SDS011;13779;-33.886;151.198;2024-01-25T11:43:29;12.45;;;4.65;;
25990;SDS011;13779;-33.886;151.198;2024-01-25T11:46:00;14.80;;;4.80;;
25990;SDS011;13779;-33.886;151.198;2024-01-25T11:48:31;16.70;;;4.85;;
25990;SDS011;13779;-33.886;151.198;2024-01-25T11:51:02;10.65;;;4.10;;
25990;SDS011;13779;-33.886;151.198;2024-01-25T11:53:33;11.60;;;4.15;;
25990;SDS011;13779;-33.886;151.198;2024-01-25T11:56:04;10.52;;;3.72;;
25990;SDS011;13779;-33.886;151.198;2024-01-25T11:58:39;11.25;;;3.75;;
25990;SDS011;13779;-33.886;151.198;2024-01-25T12:01:11;14.73;;;4.38;;
25990;SDS011;13779;-33.886;151.198;2024-01-25T12:03:43;15.45;;;3.95;;
25990;SDS011;13779;-33.886;151.198;2024-01-25T12:06:13;16.13;;;5.07;;
25990;SDS011;13779;-33.886;151.198;2024-01-25T12:08:44;20.10;;;4.22;;
25990;SDS011;13779;-33.886;151.198;2024-01-25T12:11:16;14.25;;;4.55;;
25990;SDS011;13779;-33.886;151.198;2024-01-25T12:16:17;12.10;;;4.10;;
25990;SDS011;13779;-33.886;151.198;2024-01-25T12:21:18;13.30;;;5.10;;
25990;SDS011;13779;-33.886;151.198;2024-01-25T12:23:49;18.52;;;6.40;;
25990;SDS011;13779;-33.886;151.198;2024-01-25T12:26:21;17.70;;;5.00;;
25990;SDS011;13779;-33.886;151.198;2024-01-25T12:31:22;17.10;;;4.57;;
25990;SDS011;13779;-33.886;151.198;2024-01-25T12:33:52;13.95;;;4.40;;
25990;SDS011;13779;-33.886;151.198;2024-01-25T12:36:23;12.90;;;4.50;;
25990;SDS011;13779;-33.886;151.198;2024-01-25T12:38:55;11.90;;;4.68;;
25990;SDS011;13779;-33.886;151.198;2024-01-25T12:41:28;15.27;;;4.35;;
25990;SDS011;13779;-33.886;151.198;2024-01-25T12:43:58;11.80;;;4.32;;
25990;SDS011;13779;-33.886;151.198;2024-01-25T12:48:59;13.15;;;4.80;;
25990;SDS011;13779;-33.886;151.198;2024-01-25T12:51:32;14.05;;;4.47;;
25990;SDS011;13779;-33.886;151.198;2024-01-25T12:54:03;15.20;;;4.45;;
25990;SDS011;13779;-33.886;151.198;2024-01-25T12:56:35;12.35;;;5.05;;
25990;SDS011;13779;-33.886;151.198;2024-01-25T12:59:06;18.70;;;5.00;;
25990;SDS011;13779;-33.886;151.198;2024-01-25T13:01:37;13.18;;;5.05;;
25990;SDS011;13779;-33.886;151.198;2024-01-25T13:06:38;13.30;;;5.05;;
25990;SDS011;13779;-33.886;151.198;2024-01-25T13:09:09;16.13;;;5.28;;
25990;SDS011;13779;-33.886;151.198;2024-01-25T13:11:40;15.63;;;5.55;;
25990;SDS011;13779;-33.886;151.198;2024-01-25T13:14:11;16.40;;;5.63;;
25990;SDS011;13779;-33.886;151.198;2024-01-25T13:16:42;16.20;;;4.72;;
25990;SDS011;13779;-33.886;151.198;2024-01-25T13:19:13;15.70;;;5.53;;
25990;SDS011;13779;-33.886;151.198;2024-01-25T13:21:44;17.65;;;5.32;;
25990;SDS011;13779;-33.886;151.198;2024-01-25T13:24:16;13.20;;;5.85;;
25990;SDS011;13779;-33.886;151.198;2024-01-25T13:26:47;12.15;;;4.60;;
25990;SDS011;13779;-33.886;151.198;2024-01-25T13:29:17;12.13;;;4.50;;
25990;SDS011;13779;-33.886;151.198;2024-01-25T13:31:48;13.65;;;4.85;;
25990;SDS011;13779;-33.886;151.198;2024-01-25T13:34:18;18.50;;;5.18;;
25990;SDS011;13779;-33.886;151.198;2024-01-25T13:36:48;17.17;;;4.97;;
25990;SDS011;13779;-33.886;151.198;2024-01-25T13:39:19;16.02;;;6.32;;
25990;SDS011;13779;-33.886;151.198;2024-01-25T13:41:50;15.48;;;5.43;;
25990;SDS011;13779;-33.886;151.198;2024-01-25T13:44:20;17.88;;;5.20;;
25990;SDS011;13779;-33.886;151.198;2024-01-25T13:46:51;16.17;;;5.80;;
25990;SDS011;13779;-33.886;151.198;2024-01-25T13:49:23;21.58;;;6.05;;
25990;SDS011;13779;-33.886;151.198;2024-01-25T13:51:53;15.55;;;5.18;;
25990;SDS011;13779;-33.886;151.198;2024-01-25T13:54:23;15.55;;;5.57;;
25990;SDS011;13779;-33.886;151.198;2024-01-25T13:56:55;19.75;;;6.28;;
25990;SDS011;13779;-33.886;151.198;2024-01-25T13:59:25;15.38;;;5.60;;
25990;SDS011;13779;-33.886;151.198;2024-01-25T14:01:56;21.38;;;6.32;;
25990;SDS011;13779;-33.886;151.198;2024-01-25T14:04:26;19.17;;;6.03;;
25990;SDS011;13779;-33.886;151.198;2024-01-25T14:06:57;26.42;;;6.65;;
25990;SDS011;13779;-33.886;151.198;2024-01-25T14:09:30;22.27;;;6.32;;
25990;SDS011;13779;-33.886;151.198;2024-01-25T14:12:01;23.90;;;6.80;;
25990;SDS011;13779;-33.886;151.198;2024-01-25T14:14:31;20.65;;;6.72;;
25990;SDS011;13779;-33.886;151.198;2024-01-25T14:17:02;22.73;;;6.57;;
25990;SDS011;13779;-33.886;151.198;2024-01-25T14:19:32;24.00;;;7.15;;
25990;SDS011;13779;-33.886;151.198;2024-01-25T14:22:03;21.50;;;5.90;;
25990;SDS011;13779;-33.886;151.198;2024-01-25T14:24:41;16.27;;;5.97;;
25990;SDS011;13779;-33.886;151.198;2024-01-25T14:27:12;14.98;;;5.95;;
25990;SDS011;13779;-33.886;151.198;2024-01-25T14:29:42;18.48;;;6.30;;
25990;SDS011;13779;-33.886;151.198;2024-01-25T14:32:13;22.05;;;6.85;;
25990;SDS011;13779;-33.886;151.198;2024-01-25T14:34:43;19.43;;;6.13;;
25990;SDS011;13779;-33.886;151.198;2024-01-25T14:37:13;20.73;;;5.97;;
25990;SDS011;13779;-33.886;151.198;2024-01-25T14:39:44;21.60;;;6.07;;
25990;SDS011;13779;-33.886;151.198;2024-01-25T14:42:20;17.75;;;6.47;;
25990;SDS011;13779;-33.886;151.198;2024-01-25T14:44:51;19.95;;;6.03;;
25990;SDS011;13779;-33.886;151.198;2024-01-25T14:47:21;21.95;;;6.60;;
25990;SDS011;13779;-33.886;151.198;2024-01-25T14:49:52;20.63;;;6.22;;
25990;SDS011;13779;-33.886;151.198;2024-01-25T14:52:22;16.27;;;6.27;;
25990;SDS011;13779;-33.886;151.198;2024-01-25T14:54:52;18.30;;;6.40;;
25990;SDS011;13779;-33.886;151.198;2024-01-25T14:57:23;17.33;;;6.38;;
25990;SDS011;13779;-33.886;151.198;2024-01-25T14:59:53;23.40;;;6.95;;
25990;SDS011;13779;-33.886;151.198;2024-01-25T15:02:24;18.58;;;5.95;;
25990;SDS011;13779;-33.886;151.198;2024-01-25T15:04:54;23.48;;;6.72;;
25990;SDS011;13779;-33.886;151.198;2024-01-25T15:07:25;21.23;;;6.70;;
25990;SDS011;13779;-33.886;151.198;2024-01-25T15:09:55;22.33;;;6.55;;
25990;SDS011;13779;-33.886;151.198;2024-01-25T15:12:27;17.80;;;6.10;;
25990;SDS011;13779;-33.886;151.198;2024-01-25T15:14:57;16.87;;;6.27;;